sensor_id;sensor_type;location;lat;lon;timestamp;temperature;humidity
4209;DHT22;36320;48.860;2.380;2023-03-23T00:01:39;15.80;82.10
4209;DHT22;36320;48.860;2.380;2023-03-23T00:04:09;15.00;81.50
4209;DHT22;36320;48.860;2.380;2023-03-23T00:06:50;15.70;82.30
4209;DHT22;36320;48.860;2.380;2023-03-23T00:09:18;15.60;82.40
4209;DHT22;36320;48.860;2.380;2023-03-23T00:11:50;15.70;82.30
4209;DHT22;36320;48.860;2.380;2023-03-23T00:14:21;15.60;83.30
4209;DHT22;36320;48.860;2.380;2023-03-23T00:16:48;15.70;82.50
4209;DHT22;36320;48.860;2.380;2023-03-23T00:19:19;15.80;82.60
4209;DHT22;36320;48.860;2.380;2023-03-23T00:21:46;15.80;82.10
4209;DHT22;36320;48.860;2.380;2023-03-23T00:24:17;15.70;82.80
4209;DHT22;36320;48.860;2.380;2023-03-23T00:26:48;15.70;82.10
4209;DHT22;36320;48.860;2.380;2023-03-23T00:29:29;15.70;82.10
4209;DHT22;36320;48.860;2.380;2023-03-23T00:31:58;15.60;82.10
4209;DHT22;36320;48.860;2.380;2023-03-23T00:34:24;17.40;83.50
4209;DHT22;36320;48.860;2.380;2023-03-23T00:36:54;13.90;79.80
4209;DHT22;36320;48.860;2.380;2023-03-23T00:39:23;15.70;81.30
4209;DHT22;36320;48.860;2.380;2023-03-23T00:41:51;15.90;81.30
4209;DHT22;36320;48.860;2.380;2023-03-23T00:44:24;15.80;81.50
4209;DHT22;36320;48.860;2.380;2023-03-23T00:46:53;15.90;81.20
4209;DHT22;36320;48.860;2.380;2023-03-23T00:49:23;15.80;80.80
4209;DHT22;36320;48.860;2.380;2023-03-23T00:52:01;15.70;81.20
4209;DHT22;36320;48.860;2.380;2023-03-23T00:54:37;15.70;81.10
4209;DHT22;36320;48.860;2.380;2023-03-23T00:57:04;15.70;81.10
4209;DHT22;36320;48.860;2.380;2023-03-23T00:59:36;15.70;81.20
4209;DHT22;36320;48.860;2.380;2023-03-23T01:02:06;15.60;81.20
4209;DHT22;36320;48.860;2.380;2023-03-23T01:04:32;12.90;78.60
4209;DHT22;36320;48.860;2.380;2023-03-23T01:07:03;15.70;81.20
4209;DHT22;36320;48.860;2.380;2023-03-23T01:09:30;15.70;81.30
4209;DHT22;36320;48.860;2.380;2023-03-23T01:12:06;15.70;81.20
4209;DHT22;36320;48.860;2.380;2023-03-23T01:14:32;15.70;81.30
4209;DHT22;36320;48.860;2.380;2023-03-23T01:17:02;15.80;81.10
4209;DHT22;36320;48.860;2.380;2023-03-23T01:19:28;15.90;81.20
4209;DHT22;36320;48.860;2.380;2023-03-23T01:25:06;15.70;81.40
4209;DHT22;36320;48.860;2.380;2023-03-23T01:27:33;15.70;81.70
4209;DHT22;36320;48.860;2.380;2023-03-23T01:30:10;15.80;81.60
4209;DHT22;36320;48.860;2.380;2023-03-23T01:32:45;15.70;81.50
4209;DHT22;36320;48.860;2.380;2023-03-23T01:35:14;15.60;82.10
4209;DHT22;36320;48.860;2.380;2023-03-23T01:40:47;16.80;83.60
4209;DHT22;36320;48.860;2.380;2023-03-23T01:43:16;15.20;82.20
4209;DHT22;36320;48.860;2.380;2023-03-23T01:45:45;14.40;81.70
4209;DHT22;36320;48.860;2.380;2023-03-23T01:48:33;15.50;82.70
4209;DHT22;36320;48.860;2.380;2023-03-23T01:51:08;15.50;82.50
4209;DHT22;36320;48.860;2.380;2023-03-23T01:53:50;15.50;82.50
4209;DHT22;36320;48.860;2.380;2023-03-23T01:56:29;14.40;81.80
4209;DHT22;36320;48.860;2.380;2023-03-23T01:59:04;14.70;82.20
4209;DHT22;36320;48.860;2.380;2023-03-23T02:01:41;15.30;82.70
4209;DHT22;36320;48.860;2.380;2023-03-23T02:04:11;15.30;82.80
4209;DHT22;36320;48.860;2.380;2023-03-23T02:06:40;15.50;82.80
4209;DHT22;36320;48.860;2.380;2023-03-23T02:09:06;15.50;82.60
4209;DHT22;36320;48.860;2.380;2023-03-23T02:11:32;15.50;82.50
4209;DHT22;36320;48.860;2.380;2023-03-23T02:13:58;15.50;82.40
4209;DHT22;36320;48.860;2.380;2023-03-23T02:19:39;15.70;82.30
4209;DHT22;36320;48.860;2.380;2023-03-23T02:22:27;15.60;82.30
4209;DHT22;36320;48.860;2.380;2023-03-23T02:24:57;15.50;82.40
4209;DHT22;36320;48.860;2.380;2023-03-23T02:28:01;15.50;82.40
4209;DHT22;36320;48.860;2.380;2023-03-23T02:41:45;15.60;82.40
4209;DHT22;36320;48.860;2.380;2023-03-23T02:44:12;15.50;82.40
4209;DHT22;36320;48.860;2.380;2023-03-23T02:46:39;15.50;82.40
4209;DHT22;36320;48.860;2.380;2023-03-23T02:49:07;15.50;82.50
4209;DHT22;36320;48.860;2.380;2023-03-23T02:51:35;15.50;82.40
4209;DHT22;36320;48.860;2.380;2023-03-23T02:54:03;15.50;82.20
4209;DHT22;36320;48.860;2.380;2023-03-23T02:56:30;15.50;82.10
4209;DHT22;36320;48.860;2.380;2023-03-23T02:58:58;15.60;82.00
4209;DHT22;36320;48.860;2.380;2023-03-23T03:04:01;15.60;81.90
4209;DHT22;36320;48.860;2.380;2023-03-23T03:11:41;15.60;81.80
4209;DHT22;36320;48.860;2.380;2023-03-23T03:14:13;15.60;81.80
4209;DHT22;36320;48.860;2.380;2023-03-23T03:16:53;15.60;81.60
4209;DHT22;36320;48.860;2.380;2023-03-23T03:19:31;15.30;81.60
4209;DHT22;36320;48.860;2.380;2023-03-23T03:21:59;15.50;82.00
4209;DHT22;36320;48.860;2.380;2023-03-23T03:24:29;15.50;82.10
4209;DHT22;36320;48.860;2.380;2023-03-23T03:27:00;15.50;82.00
4209;DHT22;36320;48.860;2.380;2023-03-23T03:29:32;15.50;82.10
4209;DHT22;36320;48.860;2.380;2023-03-23T03:32:00;15.60;81.90
4209;DHT22;36320;48.860;2.380;2023-03-23T03:34:29;15.50;82.10
4209;DHT22;36320;48.860;2.380;2023-03-23T03:36:58;15.50;81.90
4209;DHT22;36320;48.860;2.380;2023-03-23T03:39:25;15.60;82.10
4209;DHT22;36320;48.860;2.380;2023-03-23T03:41:53;15.50;81.90
4209;DHT22;36320;48.860;2.380;2023-03-23T03:44:19;15.50;82.20
4209;DHT22;36320;48.860;2.380;2023-03-23T03:46:45;15.40;82.30
4209;DHT22;36320;48.860;2.380;2023-03-23T03:49:11;15.50;82.40
4209;DHT22;36320;48.860;2.380;2023-03-23T03:51:38;15.50;82.20
4209;DHT22;36320;48.860;2.380;2023-03-23T03:54:05;15.40;82.20
4209;DHT22;36320;48.860;2.380;2023-03-23T03:56:34;15.50;83.10
4209;DHT22;36320;48.860;2.380;2023-03-23T03:59:02;15.50;82.60
4209;DHT22;36320;48.860;2.380;2023-03-23T04:01:28;15.60;82.80
4209;DHT22;36320;48.860;2.380;2023-03-23T04:03:54;15.60;82.70
4209;DHT22;36320;48.860;2.380;2023-03-23T04:06:21;15.60;82.80
4209;DHT22;36320;48.860;2.380;2023-03-23T04:08:47;15.60;82.80
4209;DHT22;36320;48.860;2.380;2023-03-23T04:11:14;15.50;83.00
4209;DHT22;36320;48.860;2.380;2023-03-23T04:13:40;15.40;83.20
4209;DHT22;36320;48.860;2.380;2023-03-23T04:16:06;15.40;83.50
4209;DHT22;36320;48.860;2.380;2023-03-23T04:18:33;15.60;83.50
4209;DHT22;36320;48.860;2.380;2023-03-23T04:21:00;15.50;83.30
4209;DHT22;36320;48.860;2.380;2023-03-23T04:23:28;15.40;83.70
4209;DHT22;36320;48.860;2.380;2023-03-23T04:25:56;15.40;83.80
4209;DHT22;36320;48.860;2.380;2023-03-23T04:28:24;15.30;83.70
4209;DHT22;36320;48.860;2.380;2023-03-23T04:30:51;15.30;84.20
4209;DHT22;36320;48.860;2.380;2023-03-23T04:33:19;15.20;84.20
4209;DHT22;36320;48.860;2.380;2023-03-23T04:35:45;15.30;84.10
4209;DHT22;36320;48.860;2.380;2023-03-23T04:38:16;15.50;84.20
4209;DHT22;36320;48.860;2.380;2023-03-23T04:40:46;15.60;83.80
4209;DHT22;36320;48.860;2.380;2023-03-23T04:43:12;15.60;83.60
4209;DHT22;36320;48.860;2.380;2023-03-23T04:45:38;15.50;83.40
4209;DHT22;36320;48.860;2.380;2023-03-23T04:48:07;15.50;83.40
4209;DHT22;36320;48.860;2.380;2023-03-23T04:50:34;15.50;83.60
4209;DHT22;36320;48.860;2.380;2023-03-23T04:53:01;15.50;83.40
4209;DHT22;36320;48.860;2.380;2023-03-23T04:55:34;15.60;83.10
4209;DHT22;36320;48.860;2.380;2023-03-23T04:58:07;15.60;83.10
4209;DHT22;36320;48.860;2.380;2023-03-23T05:00:34;15.60;82.80
4209;DHT22;36320;48.860;2.380;2023-03-23T05:03:00;15.60;82.70
4209;DHT22;36320;48.860;2.380;2023-03-23T05:05:27;15.60;82.80
4209;DHT22;36320;48.860;2.380;2023-03-23T05:07:53;15.50;82.70
4209;DHT22;36320;48.860;2.380;2023-03-23T05:10:19;15.40;82.90
4209;DHT22;36320;48.860;2.380;2023-03-23T05:12:45;15.40;83.10
4209;DHT22;36320;48.860;2.380;2023-03-23T05:15:13;15.40;82.90
4209;DHT22;36320;48.860;2.380;2023-03-23T05:17:40;15.30;83.00
4209;DHT22;36320;48.860;2.380;2023-03-23T05:20:11;15.40;82.90
4209;DHT22;36320;48.860;2.380;2023-03-23T05:22:38;15.40;82.90
4209;DHT22;36320;48.860;2.380;2023-03-23T05:25:05;15.40;82.80
4209;DHT22;36320;48.860;2.380;2023-03-23T05:27:34;15.40;82.50
4209;DHT22;36320;48.860;2.380;2023-03-23T05:30:00;15.40;82.50
4209;DHT22;36320;48.860;2.380;2023-03-23T05:32:27;15.40;82.40
4209;DHT22;36320;48.860;2.380;2023-03-23T05:35:00;15.40;82.30
4209;DHT22;36320;48.860;2.380;2023-03-23T05:37:27;15.40;82.60
4209;DHT22;36320;48.860;2.380;2023-03-23T05:39:59;15.30;82.90
4209;DHT22;36320;48.860;2.380;2023-03-23T05:42:32;15.30;83.30
4209;DHT22;36320;48.860;2.380;2023-03-23T05:45:00;15.30;83.60
4209;DHT22;36320;48.860;2.380;2023-03-23T05:47:27;15.20;84.20
4209;DHT22;36320;48.860;2.380;2023-03-23T05:49:52;15.10;84.60
4209;DHT22;36320;48.860;2.380;2023-03-23T05:52:19;15.20;84.80
4209;DHT22;36320;48.860;2.380;2023-03-23T05:54:47;15.30;84.80
4209;DHT22;36320;48.860;2.380;2023-03-23T05:57:12;15.20;85.10
4209;DHT22;36320;48.860;2.380;2023-03-23T05:59:38;15.00;85.40
4209;DHT22;36320;48.860;2.380;2023-03-23T06:02:04;14.90;85.60
4209;DHT22;36320;48.860;2.380;2023-03-23T06:04:31;15.30;85.90
4209;DHT22;36320;48.860;2.380;2023-03-23T06:07:02;15.30;86.50
4209;DHT22;36320;48.860;2.380;2023-03-23T06:09:29;15.30;85.90
4209;DHT22;36320;48.860;2.380;2023-03-23T06:11:54;15.40;85.90
4209;DHT22;36320;48.860;2.380;2023-03-23T06:14:20;15.30;86.00
4209;DHT22;36320;48.860;2.380;2023-03-23T06:16:47;15.30;86.00
4209;DHT22;36320;48.860;2.380;2023-03-23T06:19:13;15.30;86.00
4209;DHT22;36320;48.860;2.380;2023-03-23T06:21:40;15.30;86.30
4209;DHT22;36320;48.860;2.380;2023-03-23T06:24:05;15.30;86.40
4209;DHT22;36320;48.860;2.380;2023-03-23T06:26:36;15.30;86.30
4209;DHT22;36320;48.860;2.380;2023-03-23T06:29:03;15.30;86.30
4209;DHT22;36320;48.860;2.380;2023-03-23T06:31:38;15.20;86.40
4209;DHT22;36320;48.860;2.380;2023-03-23T06:34:04;15.30;86.30
4209;DHT22;36320;48.860;2.380;2023-03-23T06:36:30;15.40;86.30
4209;DHT22;36320;48.860;2.380;2023-03-23T06:38:56;15.50;86.20
4209;DHT22;36320;48.860;2.380;2023-03-23T06:41:21;15.40;85.90
4209;DHT22;36320;48.860;2.380;2023-03-23T06:43:47;15.40;86.20
4209;DHT22;36320;48.860;2.380;2023-03-23T06:46:13;15.20;86.40
4209;DHT22;36320;48.860;2.380;2023-03-23T06:48:39;15.30;86.60
4209;DHT22;36320;48.860;2.380;2023-03-23T06:51:06;15.40;86.70
4209;DHT22;36320;48.860;2.380;2023-03-23T06:53:32;15.50;86.60
4209;DHT22;36320;48.860;2.380;2023-03-23T06:55:58;15.40;86.50
4209;DHT22;36320;48.860;2.380;2023-03-23T06:58:25;15.40;86.50
4209;DHT22;36320;48.860;2.380;2023-03-23T07:00:57;15.40;87.00
4209;DHT22;36320;48.860;2.380;2023-03-23T07:03:23;15.40;86.90
4209;DHT22;36320;48.860;2.380;2023-03-23T07:05:52;15.50;86.80
4209;DHT22;36320;48.860;2.380;2023-03-23T07:08:17;15.60;86.60
4209;DHT22;36320;48.860;2.380;2023-03-23T07:10:44;15.30;86.30
4209;DHT22;36320;48.860;2.380;2023-03-23T07:13:09;15.10;86.40
4209;DHT22;36320;48.860;2.380;2023-03-23T07:15:36;15.40;86.80
4209;DHT22;36320;48.860;2.380;2023-03-23T07:18:03;15.40;86.80
4209;DHT22;36320;48.860;2.380;2023-03-23T07:20:31;15.40;86.80
4209;DHT22;36320;48.860;2.380;2023-03-23T07:22:57;15.60;86.70
4209;DHT22;36320;48.860;2.380;2023-03-23T07:25:24;15.60;86.40
4209;DHT22;36320;48.860;2.380;2023-03-23T07:27:52;15.60;86.20
4209;DHT22;36320;48.860;2.380;2023-03-23T07:30:18;15.70;85.90
4209;DHT22;36320;48.860;2.380;2023-03-23T07:32:45;15.60;85.60
4209;DHT22;36320;48.860;2.380;2023-03-23T07:35:12;15.60;85.60
4209;DHT22;36320;48.860;2.380;2023-03-23T07:37:41;15.70;85.50
4209;DHT22;36320;48.860;2.380;2023-03-23T07:40:21;15.90;85.30
4209;DHT22;36320;48.860;2.380;2023-03-23T07:42:56;15.90;84.20
4209;DHT22;36320;48.860;2.380;2023-03-23T07:45:22;15.80;84.30
4209;DHT22;36320;48.860;2.380;2023-03-23T07:47:48;15.90;84.30
4209;DHT22;36320;48.860;2.380;2023-03-23T07:50:14;16.00;84.00
4209;DHT22;36320;48.860;2.380;2023-03-23T07:52:40;16.00;83.70
4209;DHT22;36320;48.860;2.380;2023-03-23T07:55:10;16.00;84.30
4209;DHT22;36320;48.860;2.380;2023-03-23T07:57:43;15.90;83.30
4209;DHT22;36320;48.860;2.380;2023-03-23T08:00:09;16.00;84.10
4209;DHT22;36320;48.860;2.380;2023-03-23T08:02:39;16.00;82.90
4209;DHT22;36320;48.860;2.380;2023-03-23T08:05:07;15.90;82.70
4209;DHT22;36320;48.860;2.380;2023-03-23T08:07:34;15.80;82.80
4209;DHT22;36320;48.860;2.380;2023-03-23T08:10:03;16.00;82.50
4209;DHT22;36320;48.860;2.380;2023-03-23T08:12:29;15.90;82.10
4209;DHT22;36320;48.860;2.380;2023-03-23T08:14:59;15.70;82.10
4209;DHT22;36320;48.860;2.380;2023-03-23T08:17:25;15.40;81.70
4209;DHT22;36320;48.860;2.380;2023-03-23T08:19:51;15.90;82.20
4209;DHT22;36320;48.860;2.380;2023-03-23T08:22:18;16.00;81.80
4209;DHT22;36320;48.860;2.380;2023-03-23T08:24:43;16.00;81.50
4209;DHT22;36320;48.860;2.380;2023-03-23T08:27:09;16.00;81.40
4209;DHT22;36320;48.860;2.380;2023-03-23T08:29:35;16.00;81.20
4209;DHT22;36320;48.860;2.380;2023-03-23T08:32:01;16.00;81.00
4209;DHT22;36320;48.860;2.380;2023-03-23T08:34:30;16.20;80.60
4209;DHT22;36320;48.860;2.380;2023-03-23T08:36:57;16.30;80.00
4209;DHT22;36320;48.860;2.380;2023-03-23T08:39:23;16.60;80.00
4209;DHT22;36320;48.860;2.380;2023-03-23T08:41:50;16.70;79.30
4209;DHT22;36320;48.860;2.380;2023-03-23T08:44:16;16.90;79.10
4209;DHT22;36320;48.860;2.380;2023-03-23T08:46:42;16.90;78.70
4209;DHT22;36320;48.860;2.380;2023-03-23T08:49:08;16.90;78.70
4209;DHT22;36320;48.860;2.380;2023-03-23T08:51:34;16.90;78.10
4209;DHT22;36320;48.860;2.380;2023-03-23T08:54:01;16.90;78.40
4209;DHT22;36320;48.860;2.380;2023-03-23T08:56:27;16.90;78.30
4209;DHT22;36320;48.860;2.380;2023-03-23T08:58:52;16.70;78.00
4209;DHT22;36320;48.860;2.380;2023-03-23T09:01:19;16.90;78.20
4209;DHT22;36320;48.860;2.380;2023-03-23T09:03:46;16.90;77.80
4209;DHT22;36320;48.860;2.380;2023-03-23T09:06:12;16.90;77.70
4209;DHT22;36320;48.860;2.380;2023-03-23T09:08:38;16.80;77.40
4209;DHT22;36320;48.860;2.380;2023-03-23T09:11:07;16.60;77.50
4209;DHT22;36320;48.860;2.380;2023-03-23T09:13:34;16.60;77.80
4209;DHT22;36320;48.860;2.380;2023-03-23T09:16:02;16.70;77.50
4209;DHT22;36320;48.860;2.380;2023-03-23T09:18:29;16.60;77.40
4209;DHT22;36320;48.860;2.380;2023-03-23T09:20:58;16.60;77.40
4209;DHT22;36320;48.860;2.380;2023-03-23T09:23:24;16.80;77.10
4209;DHT22;36320;48.860;2.380;2023-03-23T09:25:50;17.00;77.10
4209;DHT22;36320;48.860;2.380;2023-03-23T09:28:18;17.10;76.70
4209;DHT22;36320;48.860;2.380;2023-03-23T09:30:44;17.30;76.50
4209;DHT22;36320;48.860;2.380;2023-03-23T09:33:11;17.30;75.80
4209;DHT22;36320;48.860;2.380;2023-03-23T09:35:38;17.10;75.90
4209;DHT22;36320;48.860;2.380;2023-03-23T09:38:05;17.10;75.90
4209;DHT22;36320;48.860;2.380;2023-03-23T09:43:59;17.10;76.10
4209;DHT22;36320;48.860;2.380;2023-03-23T09:49:03;17.60;74.70
4209;DHT22;36320;48.860;2.380;2023-03-23T09:51:45;17.40;74.60
4209;DHT22;36320;48.860;2.380;2023-03-23T09:54:29;17.20;74.60
4209;DHT22;36320;48.860;2.380;2023-03-23T09:57:00;17.20;74.80
4209;DHT22;36320;48.860;2.380;2023-03-23T10:00:01;17.30;74.90
4209;DHT22;36320;48.860;2.380;2023-03-23T10:04:58;17.60;74.70
4209;DHT22;36320;48.860;2.380;2023-03-23T10:07:28;17.40;73.80
4209;DHT22;36320;48.860;2.380;2023-03-23T10:10:00;17.60;74.20
4209;DHT22;36320;48.860;2.380;2023-03-23T10:13:02;17.70;73.70
4209;DHT22;36320;48.860;2.380;2023-03-23T10:15:36;17.70;73.80
4209;DHT22;36320;48.860;2.380;2023-03-23T10:18:17;17.80;73.40
4209;DHT22;36320;48.860;2.380;2023-03-23T10:20:48;18.00;73.30
4209;DHT22;36320;48.860;2.380;2023-03-23T10:25:56;18.20;72.20
4209;DHT22;36320;48.860;2.380;2023-03-23T10:28:36;18.40;72.40
4209;DHT22;36320;48.860;2.380;2023-03-23T10:31:11;18.70;71.80
4209;DHT22;36320;48.860;2.380;2023-03-23T10:33:44;18.70;71.20
4209;DHT22;36320;48.860;2.380;2023-03-23T10:36:29;18.50;70.40
4209;DHT22;36320;48.860;2.380;2023-03-23T10:39:19;18.40;70.60
4209;DHT22;36320;48.860;2.380;2023-03-23T10:41:47;18.10;70.80
4209;DHT22;36320;48.860;2.380;2023-03-23T10:44:21;18.20;71.00
4209;DHT22;36320;48.860;2.380;2023-03-23T10:49:34;18.30;70.90
4209;DHT22;36320;48.860;2.380;2023-03-23T10:52:26;18.50;70.40
4209;DHT22;36320;48.860;2.380;2023-03-23T10:55:18;18.60;69.50
4209;DHT22;36320;48.860;2.380;2023-03-23T10:57:47;18.60;69.60
4209;DHT22;36320;48.860;2.380;2023-03-23T11:00:24;18.70;69.20
4209;DHT22;36320;48.860;2.380;2023-03-23T11:03:01;18.80;69.20
4209;DHT22;36320;48.860;2.380;2023-03-23T11:05:37;18.80;68.90
4209;DHT22;36320;48.860;2.380;2023-03-23T11:08:11;19.30;68.70
4209;DHT22;36320;48.860;2.380;2023-03-23T11:10:42;19.40;68.20
4209;DHT22;36320;48.860;2.380;2023-03-23T11:13:14;19.50;68.00
4209;DHT22;36320;48.860;2.380;2023-03-23T11:15:42;19.40;67.60
4209;DHT22;36320;48.860;2.380;2023-03-23T11:18:19;19.40;67.60
4209;DHT22;36320;48.860;2.380;2023-03-23T11:20:47;19.40;67.20
4209;DHT22;36320;48.860;2.380;2023-03-23T11:28:50;19.50;67.30
4209;DHT22;36320;48.860;2.380;2023-03-23T11:31:24;19.50;67.10
4209;DHT22;36320;48.860;2.380;2023-03-23T11:33:59;19.50;67.30
4209;DHT22;36320;48.860;2.380;2023-03-23T11:36:38;19.40;66.70
4209;DHT22;36320;48.860;2.380;2023-03-23T11:39:26;19.60;67.00
4209;DHT22;36320;48.860;2.380;2023-03-23T11:41:55;19.60;66.50
4209;DHT22;36320;48.860;2.380;2023-03-23T11:44:23;19.60;66.60
4209;DHT22;36320;48.860;2.380;2023-03-23T11:47:32;19.70;66.40
4209;DHT22;36320;48.860;2.380;2023-03-23T11:50:20;19.80;65.70
4209;DHT22;36320;48.860;2.380;2023-03-23T11:53:00;19.60;65.60
4209;DHT22;36320;48.860;2.380;2023-03-23T11:58:16;20.20;65.50
4209;DHT22;36320;48.860;2.380;2023-03-23T12:00:52;19.70;64.50
4209;DHT22;36320;48.860;2.380;2023-03-23T12:06:10;19.40;65.70
4209;DHT22;36320;48.860;2.380;2023-03-23T12:12:02;19.60;65.80
4209;DHT22;36320;48.860;2.380;2023-03-23T12:17:59;19.80;65.90
4209;DHT22;36320;48.860;2.380;2023-03-23T12:23:21;19.90;64.80
4209;DHT22;36320;48.860;2.380;2023-03-23T12:34:28;20.20;64.50
4209;DHT22;36320;48.860;2.380;2023-03-23T12:38:08;20.30;64.40
4209;DHT22;36320;48.860;2.380;2023-03-23T12:40:15;20.10;64.20
4209;DHT22;36320;48.860;2.380;2023-03-23T12:43:00;20.10;64.60
4209;DHT22;36320;48.860;2.380;2023-03-23T12:45:52;19.80;64.10
4209;DHT22;36320;48.860;2.380;2023-03-23T12:48:25;20.20;64.20
4209;DHT22;36320;48.860;2.380;2023-03-23T12:53:50;20.40;63.50
4209;DHT22;36320;48.860;2.380;2023-03-23T12:56:33;20.60;63.70
4209;DHT22;36320;48.860;2.380;2023-03-23T12:59:16;21.00;63.20
4209;DHT22;36320;48.860;2.380;2023-03-23T13:01:46;21.00;63.00
4209;DHT22;36320;48.860;2.380;2023-03-23T13:04:20;20.90;62.60
4209;DHT22;36320;48.860;2.380;2023-03-23T13:06:48;20.80;62.60
4209;DHT22;36320;48.860;2.380;2023-03-23T13:09:27;20.80;62.10
4209;DHT22;36320;48.860;2.380;2023-03-23T13:11:58;20.80;61.50
4209;DHT22;36320;48.860;2.380;2023-03-23T13:14:53;20.80;61.40
4209;DHT22;36320;48.860;2.380;2023-03-23T13:18:11;20.90;61.50
4209;DHT22;36320;48.860;2.380;2023-03-23T13:21:06;21.70;61.80
4209;DHT22;36320;48.860;2.380;2023-03-23T13:23:39;20.50;61.00
4209;DHT22;36320;48.860;2.380;2023-03-23T13:26:08;20.40;62.00
4209;DHT22;36320;48.860;2.380;2023-03-23T13:31:35;22.30;62.90
4209;DHT22;36320;48.860;2.380;2023-03-23T13:34:05;21.10;61.00
4209;DHT22;36320;48.860;2.380;2023-03-23T13:36:38;21.30;61.20
4209;DHT22;36320;48.860;2.380;2023-03-23T13:39:15;21.40;60.80
4209;DHT22;36320;48.860;2.380;2023-03-23T13:44:26;21.10;60.80
4209;DHT22;36320;48.860;2.380;2023-03-23T13:54:49;20.80;60.70
4209;DHT22;36320;48.860;2.380;2023-03-23T13:59:58;20.60;60.40
4209;DHT22;36320;48.860;2.380;2023-03-23T14:02:42;20.70;60.50
4209;DHT22;36320;48.860;2.380;2023-03-23T14:08:56;20.60;60.80
4209;DHT22;36320;48.860;2.380;2023-03-23T14:11:01;21.00;60.50
4209;DHT22;36320;48.860;2.380;2023-03-23T14:13:50;20.60;60.50
4209;DHT22;36320;48.860;2.380;2023-03-23T14:16:24;20.40;61.10
4209;DHT22;36320;48.860;2.380;2023-03-23T14:18:56;20.30;61.40
4209;DHT22;36320;48.860;2.380;2023-03-23T14:23:51;20.70;61.60
4209;DHT22;36320;48.860;2.380;2023-03-23T14:26:21;20.60;60.90
4209;DHT22;36320;48.860;2.380;2023-03-23T14:28:51;20.40;61.20
4209;DHT22;36320;48.860;2.380;2023-03-23T14:31:23;20.70;61.20
4209;DHT22;36320;48.860;2.380;2023-03-23T14:33:53;20.60;60.80
4209;DHT22;36320;48.860;2.380;2023-03-23T14:36:22;20.60;60.90
4209;DHT22;36320;48.860;2.380;2023-03-23T14:39:06;20.20;61.10
4209;DHT22;36320;48.860;2.380;2023-03-23T14:41:34;20.20;61.70
4209;DHT22;36320;48.860;2.380;2023-03-23T14:44:04;20.40;61.50
4209;DHT22;36320;48.860;2.380;2023-03-23T14:46:31;20.40;61.50
4209;DHT22;36320;48.860;2.380;2023-03-23T14:49:00;20.70;61.30
4209;DHT22;36320;48.860;2.380;2023-03-23T14:51:26;20.60;61.40
4209;DHT22;36320;48.860;2.380;2023-03-23T14:53:53;20.50;61.00
4209;DHT22;36320;48.860;2.380;2023-03-23T14:56:20;20.40;61.20
4209;DHT22;36320;48.860;2.380;2023-03-23T14:58:52;20.50;61.10
4209;DHT22;36320;48.860;2.380;2023-03-23T15:01:27;20.50;60.70
4209;DHT22;36320;48.860;2.380;2023-03-23T15:04:00;20.40;60.80
4209;DHT22;36320;48.860;2.380;2023-03-23T15:06:28;20.60;60.50
4209;DHT22;36320;48.860;2.380;2023-03-23T15:08:56;20.50;60.30
4209;DHT22;36320;48.860;2.380;2023-03-23T15:11:37;20.50;60.50
4209;DHT22;36320;48.860;2.380;2023-03-23T15:14:21;20.60;60.30
4209;DHT22;36320;48.860;2.380;2023-03-23T15:16:51;20.60;60.90
4209;DHT22;36320;48.860;2.380;2023-03-23T15:19:24;20.50;60.10
4209;DHT22;36320;48.860;2.380;2023-03-23T15:24:39;20.40;60.30
4209;DHT22;36320;48.860;2.380;2023-03-23T15:27:28;20.50;60.00
4209;DHT22;36320;48.860;2.380;2023-03-23T15:29:59;20.40;59.90
4209;DHT22;36320;48.860;2.380;2023-03-23T15:32:39;20.20;60.00
4209;DHT22;36320;48.860;2.380;2023-03-23T15:35:18;20.10;60.10
4209;DHT22;36320;48.860;2.380;2023-03-23T15:38:05;20.20;60.00
4209;DHT22;36320;48.860;2.380;2023-03-23T15:40:37;20.30;59.90
4209;DHT22;36320;48.860;2.380;2023-03-23T15:43:21;20.20;59.70
4209;DHT22;36320;48.860;2.380;2023-03-23T15:45:57;20.00;59.40
4209;DHT22;36320;48.860;2.380;2023-03-23T15:48:29;19.80;59.70
4209;DHT22;36320;48.860;2.380;2023-03-23T15:50:55;19.70;60.00
4209;DHT22;36320;48.860;2.380;2023-03-23T15:53:33;19.50;60.10
4209;DHT22;36320;48.860;2.380;2023-03-23T15:56:01;19.60;60.30
4209;DHT22;36320;48.860;2.380;2023-03-23T15:58:28;19.50;60.30
4209;DHT22;36320;48.860;2.380;2023-03-23T16:00:54;19.50;60.60
4209;DHT22;36320;48.860;2.380;2023-03-23T16:03:26;19.50;60.70
4209;DHT22;36320;48.860;2.380;2023-03-23T16:05:57;19.30;61.10
4209;DHT22;36320;48.860;2.380;2023-03-23T16:08:25;19.00;61.80
4209;DHT22;36320;48.860;2.380;2023-03-23T16:10:54;18.90;62.00
4209;DHT22;36320;48.860;2.380;2023-03-23T16:13:24;18.80;62.20
4209;DHT22;36320;48.860;2.380;2023-03-23T16:15:52;18.90;62.20
4209;DHT22;36320;48.860;2.380;2023-03-23T16:18:20;18.90;62.30
4209;DHT22;36320;48.860;2.380;2023-03-23T16:20:47;19.00;62.40
4209;DHT22;36320;48.860;2.380;2023-03-23T16:23:13;18.80;62.60
4209;DHT22;36320;48.860;2.380;2023-03-23T16:25:39;18.80;62.80
4209;DHT22;36320;48.860;2.380;2023-03-23T16:28:05;18.80;63.00
4209;DHT22;36320;48.860;2.380;2023-03-23T16:30:33;18.70;63.00
4209;DHT22;36320;48.860;2.380;2023-03-23T16:33:00;18.70;63.10
4209;DHT22;36320;48.860;2.380;2023-03-23T16:35:26;18.50;63.00
4209;DHT22;36320;48.860;2.380;2023-03-23T16:37:54;18.40;63.20
4209;DHT22;36320;48.860;2.380;2023-03-23T16:40:21;18.50;63.10
4209;DHT22;36320;48.860;2.380;2023-03-23T16:42:48;18.50;63.70
4209;DHT22;36320;48.860;2.380;2023-03-23T16:45:15;18.50;62.40
4209;DHT22;36320;48.860;2.380;2023-03-23T16:47:42;18.50;62.40
4209;DHT22;36320;48.860;2.380;2023-03-23T16:50:12;18.50;62.40
4209;DHT22;36320;48.860;2.380;2023-03-23T16:52:44;18.50;62.40
4209;DHT22;36320;48.860;2.380;2023-03-23T16:55:14;18.50;62.50
4209;DHT22;36320;48.860;2.380;2023-03-23T16:57:40;18.40;62.40
4209;DHT22;36320;48.860;2.380;2023-03-23T17:00:11;18.40;62.60
4209;DHT22;36320;48.860;2.380;2023-03-23T17:02:42;18.10;62.60
4209;DHT22;36320;48.860;2.380;2023-03-23T17:05:11;18.40;63.10
4209;DHT22;36320;48.860;2.380;2023-03-23T17:07:41;18.40;62.90
4209;DHT22;36320;48.860;2.380;2023-03-23T17:10:08;18.40;63.10
4209;DHT22;36320;48.860;2.380;2023-03-23T17:12:35;18.50;63.20
4209;DHT22;36320;48.860;2.380;2023-03-23T17:15:01;18.50;63.10
4209;DHT22;36320;48.860;2.380;2023-03-23T17:17:29;18.50;63.30
4209;DHT22;36320;48.860;2.380;2023-03-23T17:19:55;18.40;63.40
4209;DHT22;36320;48.860;2.380;2023-03-23T17:22:22;18.40;63.50
4209;DHT22;36320;48.860;2.380;2023-03-23T17:24:49;19.50;64.90
4209;DHT22;36320;48.860;2.380;2023-03-23T17:27:16;18.30;64.10
4209;DHT22;36320;48.860;2.380;2023-03-23T17:29:42;18.30;64.30
4209;DHT22;36320;48.860;2.380;2023-03-23T17:32:16;18.40;64.40
4209;DHT22;36320;48.860;2.380;2023-03-23T17:34:43;18.40;64.30
4209;DHT22;36320;48.860;2.380;2023-03-23T17:37:11;18.40;64.40
4209;DHT22;36320;48.860;2.380;2023-03-23T17:39:36;18.40;64.60
4209;DHT22;36320;48.860;2.380;2023-03-23T17:42:03;18.40;64.70
4209;DHT22;36320;48.860;2.380;2023-03-23T17:44:29;18.00;64.50
4209;DHT22;36320;48.860;2.380;2023-03-23T17:46:55;18.20;65.10